Darlington, United Kingdom
Current Conditions -  °F | °C
As of 12:20 PM on Thursday 18 Dec 2014 (Local Time) from EGNV Reporting Station
Broken Clouds Broken Clouds  
Wind Chill: 57°   Ceiling: 2300
Heat Index: 57°   Visibility: 6mi
Dew Point: 50°   Wind: 28mph
Humidity: 77%   Direction: 230°SW
Pressure: 29.44"   Gusts: NA
Location:  54.54°N, 1.56°W
Report Text: EGNV 181220Z 23024KT 9999 FEW019 BKN023 14/10 Q0997
Loading
Personal Weather Stations






























Interactive Weather Map New forecast layout! Learn more

10-Day Weather Forecast

Advertisements
Track Severe Weather on mobile